Time;durP1;ratioP1;P1;durP2;ratioP2;P2;SDS_P1;SDS_P2;PMS_P1;PMS_P2;Temp;Humidity;BMP_temperature;BMP_pressure;BME280_temperature;BME280_humidity;BME280_pressure;Samples;Min_cycle;Max_cycle;Signal;HPM_P1;HPM_P2
2021/01/15 00:02:03;;;;;;;14.95;9.65;;;1.30;77.20;;;;;;4999517;28;20073;-64
2021/01/15 00:04:30;;;;;;;13.93;9.25;;;1.30;77.20;;;;;;5000443;28;20026;-62
2021/01/15 00:06:57;;;;;;;15.43;9.75;;;1.30;77.30;;;;;;4999719;28;20366;-64
2021/01/15 00:09:23;;;;;;;14.55;9.98;;;1.20;77.40;;;;;;5001218;28;20693;-64
2021/01/15 00:11:49;;;;;;;14.80;10.13;;;1.20;77.40;;;;;;4997863;28;20038;-65
2021/01/15 00:14:15;;;;;;;16.27;10.13;;;1.20;77.40;;;;;;5000306;28;20018;-63
2021/01/15 00:16:40;;;;;;;17.65;10.48;;;1.20;77.50;;;;;;4999477;28;21070;-64
2021/01/15 00:19:06;;;;;;;16.23;9.25;;;1.20;77.60;;;;;;5003504;28;20029;-65
2021/01/15 00:21:33;;;;;;;15.80;10.45;;;1.10;77.40;;;;;;5010298;28;20078;-64
2021/01/15 00:24:04;;;;;;;17.42;10.35;;;1.10;77.50;;;;;;4998344;28;20029;-64
2021/01/15 00:26:31;;;;;;;16.88;10.73;;;1.10;77.60;;;;;;5000244;28;20045;-64
2021/01/15 00:28:57;;;;;;;15.82;10.38;;;1.10;77.60;;;;;;4997322;28;20084;-63
2021/01/15 00:31:37;;;;;;;17.42;10.85;;;1.10;77.60;;;;;;5029598;28;20042;-64
2021/01/15 00:34:07;;;;;;;15.38;10.55;;;1.10;77.60;;;;;;4999977;28;20569;-64
2021/01/15 00:36:32;;;;;;;18.90;10.25;;;1.10;77.60;;;;;;4999119;28;20513;-64
2021/01/15 00:38:58;;;;;;;16.98;10.85;;;1.10;77.70;;;;;;4999513;28;20065;-64
2021/01/15 00:41:24;;;;;;;15.68;10.15;;;1.10;77.70;;;;;;4999463;28;20042;-64
2021/01/15 00:43:49;;;;;;;14.35;10.25;;;1.20;77.80;;;;;;4998060;28;20054;-64
2021/01/15 00:46:32;;;;;;;18.95;11.23;;;1.20;77.80;;;;;;4999204;28;20034;-65
2021/01/15 00:49:01;;;;;;;16.10;10.32;;;1.20;77.80;;;;;;5000400;28;20034;-62
2021/01/15 00:51:27;;;;;;;20.10;10.93;;;1.20;78.60;;;;;;4999291;28;20564;-64
2021/01/15 00:53:52;;;;;;;19.23;10.85;;;1.20;77.70;;;;;;4998545;28;20041;-64
2021/01/15 00:56:18;;;;;;;16.88;10.68;;;1.20;77.70;;;;;;4998910;28;20034;-64
2021/01/15 00:58:48;;;;;;;16.50;11.15;;;1.20;77.70;;;;;;4997538;28;20642;-62
2021/01/15 01:01:15;;;;;;;18.48;10.95;;;1.30;77.80;;;;;;4998798;28;20421;-64
2021/01/15 01:03:42;;;;;;;17.85;11.60;;;1.20;77.70;;;;;;4998406;28;20034;-64
2021/01/15 01:06:15;;;;;;;18.23;11.75;;;1.30;77.60;;;;;;4997905;28;20085;-64
2021/01/15 01:08:41;;;;;;;17.25;10.30;;;1.20;77.50;;;;;;5029301;28;20037;-64
2021/01/15 01:11:30;;;;;;;19.73;11.02;;;1.20;77.60;;;;;;5029126;28;20042;-64
2021/01/15 01:13:57;;;;;;;19.33;11.85;;;1.20;77.60;;;;;;4994765;28;20045;-63
2021/01/15 01:16:27;;;;;;;22.95;12.35;;;1.20;77.50;;;;;;4998367;28;20046;-65
2021/01/15 01:18:54;;;;;;;18.42;11.82;;;1.20;77.50;;;;;;5028449;28;20133;-64
2021/01/15 01:21:20;;;;;;;18.25;12.07;;;1.20;77.40;;;;;;4999501;28;20062;-65
2021/01/15 01:23:46;;;;;;;17.23;10.88;;;1.20;77.40;;;;;;4998390;28;20128;-64
2021/01/15 01:26:12;;;;;;;20.33;12.15;;;1.20;77.40;;;;;;4996509;28;20096;-63
2021/01/15 01:28:39;;;;;;;18.77;11.60;;;1.20;77.50;;;;;;4997637;28;20034;-63
2021/01/15 01:31:05;;;;;;;20.70;12.18;;;1.20;77.60;;;;;;4996371;28;20058;-65
2021/01/15 01:33:31;;;;;;;16.85;11.07;;;1.20;77.60;;;;;;4998431;28;20120;-64
2021/01/15 01:35:56;;;;;;;19.10;11.65;;;1.20;77.70;;;;;;5012094;28;20117;-64
2021/01/15 01:38:22;;;;;;;18.65;11.38;;;1.20;77.60;;;;;;4999601;28;20049;-64
2021/01/15 01:40:48;;;;;;;17.38;11.40;;;1.10;77.60;;;;;;4997230;28;20093;-65
2021/01/15 01:43:14;;;;;;;21.40;11.75;;;1.20;77.70;;;;;;5000061;28;20057;-64
2021/01/15 01:45:39;;;;;;;17.70;11.50;;;1.10;77.60;;;;;;4997414;28;20044;-63
2021/01/15 01:48:06;;;;;;;16.73;11.10;;;1.10;77.70;;;;;;4997839;28;20042;-64
2021/01/15 01:50:34;;;;;;;18.58;11.40;;;1.10;77.60;;;;;;4997543;28;20062;-64
2021/01/15 01:53:01;;;;;;;17.67;10.80;;;1.10;77.60;;;;;;4997828;28;20057;-64
2021/01/15 01:55:28;;;;;;;19.48;11.20;;;1.10;77.60;;;;;;4998228;28;20034;-65
2021/01/15 01:57:54;;;;;;;17.00;11.70;;;1.10;77.70;;;;;;4998422;28;20100;-64
2021/01/15 02:00:19;;;;;;;21.15;11.95;;;1.10;77.60;;;;;;4995663;28;20035;-62
2021/01/15 02:02:45;;;;;;;18.17;11.40;;;1.10;77.70;;;;;;5013708;28;20037;-64
2021/01/15 02:05:11;;;;;;;19.95;11.38;;;1.10;77.60;;;;;;4997160;28;20030;-65
2021/01/15 02:07:37;;;;;;;19.40;11.48;;;1.10;77.60;;;;;;4997821;28;20497;-64
2021/01/15 02:10:15;;;;;;;18.95;11.45;;;1.10;77.60;;;;;;4998729;28;20041;-65
2021/01/15 02:12:55;;;;;;;18.25;12.05;;;1.10;77.60;;;;;;4995018;28;20041;-64
2021/01/15 02:15:32;;;;;;;17.05;10.90;;;1.10;78.30;;;;;;4992869;28;20041;-64
2021/01/15 02:18:19;;;;;;;19.10;11.00;;;1.00;77.50;;;;;;4995078;28;20114;-64
2021/01/15 02:21:41;;;;;;;23.58;11.07;;;1.00;77.40;;;;;;4995987;28;20042;-63
2021/01/15 02:24:27;;;;;;;17.23;10.80;;;1.00;77.50;;;;;;5009456;28;20038;-64
2021/01/15 02:27:29;;;;;;;18.38;11.10;;;1.10;77.50;;;;;;5014401;28;20497;-65
2021/01/15 02:30:20;;;;;;;14.73;10.10;;;1.00;77.40;;;;;;5049413;28;20026;-65
2021/01/15 02:33:06;;;;;;;15.75;10.40;;;1.00;77.30;;;;;;5014598;28;20508;-64
2021/01/15 02:35:58;;;;;;;16.63;10.35;;;1.00;77.40;;;;;;5013296;28;20061;-64
2021/01/15 02:38:45;;;;;;;15.85;10.40;;;1.00;77.40;;;;;;5017002;28;20034;-64
2021/01/15 02:41:18;;;;;;;17.23;10.70;;;1.00;77.40;;;;;;5017651;28;20096;-64
2021/01/15 02:43:49;;;;;;;14.98;10.00;;;1.00;77.40;;;;;;5017865;28;20049;-64
2021/01/15 02:46:18;;;;;;;21.65;10.98;;;1.00;77.60;;;;;;5046660;28;20030;-63
2021/01/15 02:48:48;;;;;;;17.73;10.80;;;1.00;77.40;;;;;;5015253;28;20065;-64
2021/01/15 02:51:14;;;;;;;16.45;10.95;;;1.00;77.40;;;;;;5049082;28;20041;-64
2021/01/15 02:53:40;;;;;;;20.48;11.70;;;0.90;77.50;;;;;;5049255;28;20504;-65
2021/01/15 02:56:06;;;;;;;17.85;11.43;;;1.00;77.40;;;;;;5016925;28;20033;-64
2021/01/15 02:58:31;;;;;;;20.02;11.95;;;0.90;77.40;;;;;;5015219;28;20038;-64
2021/01/15 03:00:57;;;;;;;18.88;11.57;;;0.90;77.40;;;;;;5014746;28;20504;-63
2021/01/15 03:03:39;;;;;;;20.35;12.02;;;0.90;77.40;;;;;;5016448;28;20099;-64
2021/01/15 03:06:23;;;;;;;18.52;11.65;;;0.90;77.30;;;;;;5016098;28;20066;-64
2021/01/15 03:08:50;;;;;;;20.00;12.00;;;0.90;78.20;;;;;;5014943;28;20041;-64
2021/01/15 03:11:17;;;;;;;19.05;11.18;;;0.80;77.40;;;;;;5016516;28;20030;-64
2021/01/15 03:13:43;;;;;;;16.92;10.30;;;0.90;77.40;;;;;;5015475;28;20041;-64
2021/01/15 03:16:11;;;;;;;16.10;10.63;;;0.80;77.30;;;;;;5016543;28;20053;-65
2021/01/15 03:18:38;;;;;;;13.80;9.73;;;0.80;77.30;;;;;;5016037;28;20049;-64
2021/01/15 03:21:03;;;;;;;15.80;9.30;;;0.80;77.40;;;;;;5014216;28;20071;-64
2021/01/15 03:23:36;;;;;;;16.00;9.50;;;0.70;77.40;;;;;;5015995;28;20498;-65
2021/01/15 03:26:01;;;;;;;14.80;9.35;;;0.70;77.40;;;;;;5017686;28;20116;-64
2021/01/15 03:28:27;;;;;;;14.88;9.38;;;0.70;77.30;;;;;;5014827;28;20172;-63
2021/01/15 03:30:53;;;;;;;15.65;8.63;;;0.70;77.30;;;;;;5014790;28;20038;-64
2021/01/15 03:33:18;;;;;;;13.38;9.10;;;0.70;77.30;;;;;;5016473;28;20502;-64
2021/01/15 03:35:44;;;;;;;15.23;9.55;;;0.70;77.30;;;;;;5015867;28;20080;-64
2021/01/15 03:38:12;;;;;;;13.77;8.63;;;0.60;77.30;;;;;;5015564;28;20565;-63
2021/01/15 03:40:43;;;;;;;15.10;8.95;;;0.60;77.40;;;;;;5014922;28;20040;-66
2021/01/15 03:43:16;;;;;;;13.45;8.88;;;0.60;77.30;;;;;;5048435;28;20038;-64
2021/01/15 03:45:43;;;;;;;13.15;8.65;;;0.50;77.30;;;;;;5014271;28;20087;-64
2021/01/15 03:48:10;;;;;;;14.18;8.65;;;0.50;77.40;;;;;;5047416;28;20058;-65
2021/01/15 03:50:36;;;;;;;13.68;7.88;;;0.50;77.40;;;;;;5013538;28;20034;-64
2021/01/15 03:53:02;;;;;;;12.38;7.95;;;0.50;77.40;;;;;;5014880;28;20053;-60
2021/01/15 03:55:28;;;;;;;13.85;8.25;;;0.50;77.30;;;;;;5015443;28;20521;-64
2021/01/15 03:57:53;;;;;;;10.80;7.18;;;0.40;77.10;;;;;;5016046;28;20033;-64
2021/01/15 04:00:19;;;;;;;15.95;7.78;;;0.40;77.20;;;;;;5014803;28;20049;-62
2021/01/15 04:02:45;;;;;;;11.77;7.65;;;0.40;77.20;;;;;;5012631;28;20429;-63
2021/01/15 04:05:13;;;;;;;13.25;7.43;;;0.40;77.20;;;;;;5017211;28;20053;-64
2021/01/15 04:07:39;;;;;;;12.15;7.30;;;0.30;77.10;;;;;;5016734;28;20030;-64
2021/01/15 04:10:09;;;;;;;12.55;7.03;;;0.30;77.10;;;;;;5046599;28;20048;-63
2021/01/15 04:12:34;;;;;;;12.20;6.85;;;0.40;77.20;;;;;;5013845;28;20038;-64
2021/01/15 04:15:00;;;;;;;11.80;6.95;;;0.30;77.10;;;;;;5014556;28;20033;-65
2021/01/15 04:17:26;;;;;;;11.95;6.90;;;0.20;76.90;;;;;;5016080;28;20045;-63
2021/01/15 04:19:51;;;;;;;13.10;7.53;;;0.20;76.90;;;;;;5033217;28;20030;-64
2021/01/15 04:22:17;;;;;;;13.32;7.28;;;0.20;76.90;;;;;;5017231;28;20128;-64
2021/01/15 04:24:42;;;;;;;13.73;6.75;;;0.10;76.90;;;;;;5017501;28;20037;-65
2021/01/15 04:27:08;;;;;;;9.68;6.15;;;0.10;77.00;;;;;;5019544;28;20561;-64
2021/01/15 04:29:35;;;;;;;10.23;6.85;;;0.10;77.00;;;;;;5018655;28;20275;-65
2021/01/15 04:32:02;;;;;;;9.75;6.38;;;0.10;76.90;;;;;;5019044;28;20038;-64
2021/01/15 04:34:28;;;;;;;10.27;6.03;;;0.10;76.90;;;;;;5019480;28;20056;-64
2021/01/15 04:36:53;;;;;;;12.00;6.45;;;0.00;76.80;;;;;;5014417;28;20034;-63
2021/01/15 04:39:19;;;;;;;9.80;6.45;;;0.00;76.80;;;;;;5015675;28;20034;-64
2021/01/15 04:41:47;;;;;;;9.70;6.05;;;0.00;76.70;;;;;;5017736;28;20409;-63
2021/01/15 04:44:13;;;;;;;9.52;6.28;;;0.00;76.60;;;;;;5013816;28;20152;-64
2021/01/15 04:46:40;;;;;;;12.10;6.68;;;-0.10;76.50;;;;;;5046837;28;20668;-64
2021/01/15 04:49:12;;;;;;;10.90;6.95;;;-0.10;76.40;;;;;;5014855;28;20037;-64
2021/01/15 04:51:39;;;;;;;8.15;6.13;;;-0.10;76.60;;;;;;5048874;28;20129;-65
2021/01/15 04:54:13;;;;;;;13.77;6.88;;;-0.20;76.40;;;;;;5017846;28;20034;-64
2021/01/15 04:56:39;;;;;;;15.73;8.30;;;-0.20;76.30;;;;;;5034423;28;20038;-64
2021/01/15 04:59:08;;;;;;;14.68;7.82;;;-0.20;76.30;;;;;;5017722;28;20031;-63
2021/01/15 05:01:57;;;;;;;13.18;8.18;;;-0.30;76.20;;;;;;5048713;28;20056;-64
2021/01/15 05:04:23;;;;;;;17.35;8.10;;;-0.30;76.20;;;;;;5015284;28;20037;-64
2021/01/15 05:06:52;;;;;;;18.90;10.20;;;-0.40;76.30;;;;;;5015880;28;20037;-64
2021/01/15 05:09:26;;;;;;;10.90;7.13;;;-0.40;76.40;;;;;;5018025;28;20030;-64
2021/01/15 05:11:52;;;;;;;13.90;7.38;;;-0.50;76.40;;;;;;5003739;28;20602;-65
2021/01/15 05:14:19;;;;;;;12.88;7.68;;;-0.50;76.60;;;;;;5028353;28;20030;-64
2021/01/15 05:16:49;;;;;;;13.57;8.80;;;-0.50;76.50;;;;;;5029861;28;20058;-64
2021/01/15 05:19:16;;;;;;;14.63;7.97;;;-0.50;76.60;;;;;;5005369;28;20026;-64
2021/01/15 05:21:42;;;;;;;14.35;8.40;;;-0.60;76.50;;;;;;5039934;28;20045;-61
2021/01/15 05:24:09;;;;;;;13.82;7.63;;;-0.60;76.60;;;;;;5030081;28;20156;-64
2021/01/15 05:26:38;;;;;;;16.77;7.70;;;-0.60;76.60;;;;;;5028076;28;20509;-63
2021/01/15 05:29:06;;;;;;;11.25;6.95;;;-0.70;76.40;;;;;;5011269;28;20041;-64
2021/01/15 05:31:59;;;;;;;12.75;7.65;;;-0.70;76.40;;;;;;5009065;28;20042;-65
2021/01/15 05:34:26;;;;;;;13.40;8.02;;;-0.70;76.20;;;;;;5016408;28;20037;-65
2021/01/15 05:36:52;;;;;;;12.65;6.95;;;-0.80;76.20;;;;;;5015097;28;20034;-64
2021/01/15 05:39:21;;;;;;;13.23;7.80;;;-0.80;76.10;;;;;;5018662;28;20119;-64
2021/01/15 05:41:49;;;;;;;12.43;7.68;;;-0.80;76.10;;;;;;5015152;28;20175;-65
2021/01/15 05:44:28;;;;;;;11.27;7.32;;;-0.90;76.20;;;;;;5018981;28;20406;-64
2021/01/15 05:46:54;;;;;;;16.77;8.35;;;-0.80;76.20;;;;;;5018330;28;20073;-63
2021/01/15 05:49:19;;;;;;;11.57;8.00;;;-0.90;76.10;;;;;;5018910;28;20497;-64
2021/01/15 05:51:45;;;;;;;13.13;7.97;;;-1.00;76.00;;;;;;5019117;28;20036;-64
2021/01/15 05:54:11;;;;;;;14.45;8.23;;;-1.00;76.00;;;;;;5018338;28;20504;-65
2021/01/15 05:56:37;;;;;;;13.05;7.95;;;-1.00;76.00;;;;;;5019212;28;20497;-64
2021/01/15 05:59:05;;;;;;;14.57;8.68;;;-1.10;75.90;;;;;;5017733;28;20029;-64
2021/01/15 06:01:50;;;;;;;15.60;8.75;;;-1.10;75.90;;;;;;5016761;28;20068;-65
2021/01/15 06:04:32;;;;;;;18.33;9.07;;;-1.10;75.60;;;;;;5019301;28;20061;-64
2021/01/15 06:06:58;;;;;;;14.65;9.02;;;-1.20;75.70;;;;;;5017212;28;20096;-65
2021/01/15 06:09:24;;;;;;;13.45;8.68;;;-1.20;75.80;;;;;;5018996;28;20132;-64
2021/01/15 06:11:51;;;;;;;12.02;7.53;;;-1.10;76.00;;;;;;5016488;28;20569;-63
2021/01/15 06:14:26;;;;;;;17.73;8.45;;;-1.30;75.90;;;;;;5033481;28;20125;-66
2021/01/15 06:17:08;;;;;;;13.32;7.93;;;-1.40;75.70;;;;;;5018180;28;20052;-65
2021/01/15 06:19:51;;;;;;;17.77;8.10;;;-1.40;75.70;;;;;;5017362;28;20029;-65
2021/01/15 06:22:45;;;;;;;14.73;8.30;;;-1.50;75.50;;;;;;5016583;28;20401;-64
2021/01/15 06:25:29;;;;;;;15.15;8.43;;;-1.50;75.50;;;;;;5017406;28;20065;-63
2021/01/15 06:27:57;;;;;;;18.45;9.23;;;-1.60;75.50;;;;;;5018590;28;20033;-64
2021/01/15 06:30:25;;;;;;;12.95;8.32;;;-1.60;75.80;;;;;;5017293;28;20442;-64
2021/01/15 06:32:51;;;;;;;16.20;9.40;;;-1.70;75.90;;;;;;5016355;28;20040;-64
2021/01/15 06:35:31;;;;;;;17.67;10.10;;;-1.70;76.00;;;;;;5016848;28;20068;-64
2021/01/15 06:38:02;;;;;;;16.50;9.63;;;-1.80;75.90;;;;;;5018632;28;20037;-64
2021/01/15 06:40:35;;;;;;;17.50;9.18;;;-1.80;75.90;;;;;;5017273;28;20512;-65
2021/01/15 06:43:04;;;;;;;16.17;9.38;;;-1.90;76.00;;;;;;5018478;28;20128;-64
2021/01/15 06:45:36;;;;;;;14.95;9.48;;;-1.90;76.10;;;;;;5017910;28;20030;-64
2021/01/15 06:48:10;;;;;;;16.75;9.07;;;-2.00;76.20;;;;;;5018412;28;20030;-64
2021/01/15 06:50:38;;;;;;;13.07;7.32;;;-2.00;76.30;;;;;;5031070;28;20033;-64
2021/01/15 06:53:27;;;;;;;19.27;10.68;;;-2.00;76.40;;;;;;5017828;28;20060;-65
2021/01/15 06:55:57;;;;;;;15.95;9.13;;;-2.00;76.40;;;;;;5018113;28;20041;-65
2021/01/15 06:58:28;;;;;;;17.77;11.15;;;-2.00;76.50;;;;;;5017144;28;20172;-65
2021/01/15 07:01:05;;;;;;;18.83;11.45;;;-2.10;76.50;;;;;;5017076;28;20527;-64
2021/01/15 07:04:09;;;;;;;21.58;11.90;;;-2.10;76.60;;;;;;5017859;28;20046;-64
2021/01/15 07:06:36;;;;;;;20.83;11.60;;;-2.10;76.80;;;;;;5013705;28;20044;-64
2021/01/15 07:09:08;;;;;;;20.63;11.38;;;-2.10;76.90;;;;;;5013764;28;20587;-65
2021/01/15 07:11:34;;;;;;;18.17;10.98;;;-2.10;77.20;;;;;;5013789;28;20472;-63
2021/01/15 07:14:02;;;;;;;23.80;13.27;;;-2.10;77.30;;;;;;5001462;28;20049;-64
2021/01/15 07:16:33;;;;;;;30.33;13.77;;;-2.10;77.40;;;;;;5011050;28;20128;-64
2021/01/15 07:19:05;;;;;;;20.67;11.95;;;-2.20;77.50;;;;;;4998542;28;20125;-64
2021/01/15 07:21:39;;;;;;;22.85;13.63;;;-2.10;77.70;;;;;;4997247;28;20502;-64
2021/01/15 07:24:09;;;;;;;25.70;13.82;;;-2.10;77.80;;;;;;4998329;28;20038;-64
2021/01/15 07:26:42;;;;;;;29.77;13.63;;;-2.10;77.80;;;;;;4997800;28;20030;-64
2021/01/15 07:29:10;;;;;;;25.30;13.30;;;-2.10;77.80;;;;;;4998062;28;20446;-63
2021/01/15 07:31:40;;;;;;;26.70;13.90;;;-2.10;77.80;;;;;;4997414;28;20142;-64
2021/01/15 07:34:13;;;;;;;28.98;14.68;;;-2.10;77.90;;;;;;5012772;28;20042;-63
2021/01/15 07:36:39;;;;;;;28.60;14.70;;;-2.00;78.00;;;;;;4994397;28;20046;-63
2021/01/15 07:39:16;;;;;;;28.23;15.10;;;-2.10;78.00;;;;;;4996124;28;20045;-64
2021/01/15 07:41:53;;;;;;;28.23;14.93;;;-2.10;78.10;;;;;;4996915;28;20066;-64
2021/01/15 07:44:22;;;;;;;29.77;15.35;;;-2.00;78.30;;;;;;4998853;28;20522;-61
2021/01/15 07:46:48;;;;;;;29.52;15.98;;;-2.00;78.50;;;;;;5017804;28;20053;-64
2021/01/15 07:49:14;;;;;;;32.28;16.25;;;-2.00;78.70;;;;;;5015471;28;20029;-63
2021/01/15 07:51:39;;;;;;;32.47;15.18;;;-2.00;78.80;;;;;;5019191;28;20491;-63
2021/01/15 07:54:05;;;;;;;30.60;15.38;;;-1.90;78.80;;;;;;5021372;28;20053;-63
2021/01/15 07:56:31;;;;;;;28.80;14.82;;;-1.90;79.00;;;;;;5019944;28;20053;-64
2021/01/15 07:58:57;;;;;;;32.00;15.38;;;-1.90;79.00;;;;;;5018774;28;20040;-63
2021/01/15 08:01:23;;;;;;;32.00;14.73;;;-1.80;79.10;;;;;;5016260;28;20025;-65
2021/01/15 08:03:52;;;;;;;38.70;15.63;;;-1.80;79.20;;;;;;5015924;28;20045;-63
2021/01/15 08:06:19;;;;;;;29.23;15.05;;;-1.80;79.30;;;;;;5019519;28;20041;-65
2021/01/15 08:09:03;;;;;;;34.72;17.73;;;-1.80;80.00;;;;;;5019578;28;20033;-64
2021/01/15 08:11:33;;;;;;;31.93;16.23;;;-1.80;79.60;;;;;;5016057;28;20042;-63
2021/01/15 08:14:16;;;;;;;31.23;16.02;;;-1.70;79.30;;;;;;5020042;28;20284;-63
2021/01/15 08:16:43;;;;;;;28.83;14.73;;;-1.70;79.70;;;;;;5017744;28;20560;-64
2021/01/15 08:19:10;;;;;;;32.47;15.70;;;-1.70;79.30;;;;;;5018658;28;20529;-65
2021/01/15 08:21:36;;;;;;;29.10;14.88;;;-1.70;79.40;;;;;;5021222;28;20470;-64
2021/01/15 08:24:06;;;;;;;33.90;16.38;;;-1.70;79.50;;;;;;5019799;28;20039;-64
2021/01/15 08:26:53;;;;;;;27.63;14.80;;;-1.60;79.50;;;;;;5019578;28;20044;-63
2021/01/15 08:29:21;;;;;;;30.00;14.90;;;-1.60;79.70;;;;;;5017024;28;20461;-64
2021/01/15 08:31:47;;;;;;;30.75;15.10;;;-1.60;79.50;;;;;;5020442;28;20396;-64
2021/01/15 08:34:19;;;;;;;32.25;14.80;;;-1.50;79.50;;;;;;5020566;28;20109;-62
2021/01/15 08:36:50;;;;;;;30.30;15.18;;;-1.50;79.60;;;;;;5019879;28;20156;-64
2021/01/15 08:39:16;;;;;;;33.10;15.35;;;-1.40;79.70;;;;;;5017488;28;20034;-63
2021/01/15 08:41:42;;;;;;;31.40;16.15;;;-1.40;79.50;;;;;;5018142;28;20124;-64
2021/01/15 08:44:09;;;;;;;30.90;15.20;;;-1.40;79.50;;;;;;5020815;28;20409;-64
2021/01/15 08:46:38;;;;;;;31.30;15.13;;;-1.30;79.50;;;;;;5019814;28;20562;-64
2021/01/15 08:49:09;;;;;;;32.67;16.15;;;-1.30;79.50;;;;;;5018233;28;20037;-63
2021/01/15 08:51:36;;;;;;;32.97;14.75;;;-1.20;79.50;;;;;;5020192;28;20084;-63
2021/01/15 08:54:06;;;;;;;34.42;17.00;;;-1.20;79.30;;;;;;5019350;28;20025;-64
2021/01/15 08:56:50;;;;;;;33.95;15.95;;;-1.20;79.50;;;;;;5019540;28;20044;-63
2021/01/15 08:59:30;;;;;;;35.00;16.65;;;-1.10;79.70;;;;;;5019241;28;20533;-63
2021/01/15 09:02:06;;;;;;;33.05;16.55;;;-1.10;79.70;;;;;;5018575;28;20057;-64
2021/01/15 09:04:33;;;;;;;34.22;17.08;;;-1.00;79.50;;;;;;5017833;28;20528;-64
2021/01/15 09:07:02;;;;;;;33.38;17.05;;;-1.00;79.60;;;;;;5018653;28;20034;-64
2021/01/15 09:09:30;;;;;;;39.97;17.98;;;-0.90;79.50;;;;;;5017066;28;20038;-64
2021/01/15 09:12:09;;;;;;;35.00;16.90;;;-1.00;79.50;;;;;;5019934;28;20056;-64
2021/01/15 09:14:35;;;;;;;32.55;17.17;;;-0.90;79.60;;;;;;5019324;28;20038;-64
2021/01/15 09:17:05;;;;;;;37.10;17.77;;;-0.80;79.70;;;;;;5018975;28;20026;-64
2021/01/15 09:19:32;;;;;;;30.73;16.55;;;-0.80;80.20;;;;;;5019893;28;20033;-64
2021/01/15 09:22:00;;;;;;;30.42;15.32;;;-0.70;79.20;;;;;;5019093;28;20144;-63
2021/01/15 09:24:30;;;;;;;30.70;15.07;;;-0.80;78.90;;;;;;5018180;28;20065;-64
2021/01/15 09:27:03;;;;;;;30.98;15.70;;;-0.70;79.00;;;;;;5018670;28;20175;-64
2021/01/15 09:29:30;;;;;;;30.67;15.98;;;-0.70;79.10;;;;;;5018201;28;20108;-64
2021/01/15 09:31:56;;;;;;;29.60;15.48;;;-0.60;79.20;;;;;;5019172;28;20029;-65
2021/01/15 09:34:23;;;;;;;30.42;15.55;;;-0.60;79.30;;;;;;5016525;28;20136;-65
2021/01/15 09:36:51;;;;;;;31.10;15.38;;;-0.60;79.10;;;;;;5016161;28;20049;-63
2021/01/15 09:39:18;;;;;;;29.40;15.10;;;-0.50;79.00;;;;;;5016340;28;20449;-67
2021/01/15 09:41:47;;;;;;;32.45;15.25;;;-0.50;78.80;;;;;;5014926;28;20518;-65
2021/01/15 09:44:14;;;;;;;27.88;13.73;;;-0.40;78.70;;;;;;5016296;28;20041;-65
2021/01/15 09:46:40;;;;;;;28.90;14.48;;;-0.40;78.60;;;;;;5017534;28;20164;-64
2021/01/15 09:49:06;;;;;;;27.95;14.00;;;-0.40;78.60;;;;;;5017941;28;20567;-64
2021/01/15 09:51:32;;;;;;;25.98;13.65;;;-0.30;78.60;;;;;;5017760;28;20045;-65
2021/01/15 09:53:58;;;;;;;26.35;13.45;;;-0.30;78.60;;;;;;5018396;28;20034;-65
2021/01/15 09:56:28;;;;;;;30.80;15.30;;;-0.20;78.60;;;;;;5017958;28;20126;-64
2021/01/15 09:58:56;;;;;;;28.60;14.90;;;-0.20;78.30;;;;;;5015496;28;20539;-65
2021/01/15 10:01:23;;;;;;;26.23;14.25;;;-0.20;78.90;;;;;;5018514;28;20111;-65
2021/01/15 10:03:49;;;;;;;27.17;14.43;;;-0.20;78.00;;;;;;5018443;28;20525;-65
2021/01/15 10:06:16;;;;;;;28.23;14.77;;;-0.10;78.00;;;;;;5018605;28;20057;-66
2021/01/15 10:08:42;;;;;;;24.90;13.70;;;-0.10;78.00;;;;;;5018225;28;20361;-66
2021/01/15 10:11:08;;;;;;;25.35;13.98;;;-0.10;77.60;;;;;;5014870;28;20517;-65
2021/01/15 10:13:34;;;;;;;27.65;14.35;;;-0.10;77.50;;;;;;5017016;28;20042;-65
2021/01/15 10:16:06;;;;;;;24.90;13.80;;;-0.10;77.30;;;;;;5017977;28;20113;-65
2021/01/15 10:18:32;;;;;;;25.42;13.48;;;-0.10;77.30;;;;;;5017685;28;20049;-65
2021/01/15 10:20:58;;;;;;;24.98;13.20;;;-0.10;77.60;;;;;;5018129;28;20044;-65
2021/01/15 10:23:24;;;;;;;25.90;13.40;;;0.00;77.60;;;;;;5018309;28;20049;-65
2021/01/15 10:25:49;;;;;;;23.88;13.20;;;0.00;77.50;;;;;;5018109;28;20048;-65
2021/01/15 10:28:15;;;;;;;23.70;12.38;;;0.00;77.60;;;;;;5016082;28;20060;-65
2021/01/15 10:30:45;;;;;;;22.83;12.77;;;0.00;77.60;;;;;;5016566;28;20041;-64
2021/01/15 10:33:11;;;;;;;21.85;12.85;;;0.10;77.60;;;;;;5017820;28;20044;-65
2021/01/15 10:35:36;;;;;;;20.13;12.38;;;0.10;77.60;;;;;;5017714;28;20030;-65
2021/01/15 10:38:02;;;;;;;25.05;13.25;;;0.20;77.60;;;;;;5048086;28;20057;-65
2021/01/15 10:40:28;;;;;;;24.50;13.10;;;0.20;77.50;;;;;;5016394;28;20496;-65
2021/01/15 10:42:54;;;;;;;21.55;12.32;;;0.20;77.60;;;;;;5018211;28;20049;-65
2021/01/15 10:45:20;;;;;;;25.25;13.57;;;0.20;77.50;;;;;;5017656;28;20056;-65
2021/01/15 10:47:46;;;;;;;25.90;13.60;;;0.20;77.30;;;;;;5017451;28;20095;-65
2021/01/15 10:50:13;;;;;;;25.42;14.38;;;0.30;77.30;;;;;;5016582;28;20522;-65
2021/01/15 10:52:39;;;;;;;24.60;13.90;;;0.30;78.30;;;;;;5050041;28;20083;-66
2021/01/15 10:55:05;;;;;;;26.50;15.00;;;0.30;77.50;;;;;;5016715;28;20026;-66
2021/01/15 10:57:31;;;;;;;24.63;13.98;;;0.30;77.40;;;;;;5017402;28;20408;-65
2021/01/15 10:59:57;;;;;;;23.92;14.45;;;0.40;77.30;;;;;;5046914;28;20029;-64
2021/01/15 11:02:22;;;;;;;26.98;14.52;;;0.40;77.20;;;;;;5014683;28;20056;-64
2021/01/15 11:04:48;;;;;;;25.50;14.40;;;0.40;76.70;;;;;;5016231;28;20033;-65
2021/01/15 11:07:14;;;;;;;24.73;13.98;;;0.30;76.80;;;;;;5011655;28;20042;-65
2021/01/15 11:09:40;;;;;;;22.90;13.15;;;0.30;76.90;;;;;;5011479;28;20406;-64
2021/01/15 11:12:06;;;;;;;25.23;13.75;;;0.30;76.60;;;;;;5016142;28;20030;-65
2021/01/15 11:14:32;;;;;;;22.83;13.48;;;0.30;76.70;;;;;;5031091;28;20038;-65
2021/01/15 11:16:57;;;;;;;23.83;12.98;;;0.30;76.10;;;;;;5011897;28;20042;-66
2021/01/15 11:19:23;;;;;;;24.02;13.18;;;0.30;77.30;;;;;;4997330;28;20034;-66
2021/01/15 11:21:52;;;;;;;23.58;13.35;;;0.30;76.40;;;;;;4995780;28;20074;-66
2021/01/15 11:24:18;;;;;;;24.33;12.98;;;0.30;76.70;;;;;;4996850;28;20042;-64
2021/01/15 11:26:44;;;;;;;26.15;13.43;;;0.20;76.90;;;;;;5016285;28;20074;-65
2021/01/15 11:29:10;;;;;;;28.55;15.43;;;0.30;76.90;;;;;;5020969;28;20041;-65
2021/01/15 11:31:36;;;;;;;29.73;14.82;;;0.30;77.70;;;;;;5020370;28;20034;-64
2021/01/15 11:34:02;;;;;;;30.65;16.25;;;0.30;76.90;;;;;;5019793;28;20034;-64
2021/01/15 11:36:32;;;;;;;29.75;15.02;;;0.30;77.10;;;;;;5020623;28;20038;-64
2021/01/15 11:39:04;;;;;;;35.08;16.05;;;0.30;77.10;;;;;;5017388;28;20595;-67
2021/01/15 11:41:29;;;;;;;29.92;15.55;;;0.40;77.20;;;;;;5015260;28;20030;-66
2021/01/15 11:43:55;;;;;;;29.67;15.77;;;0.40;77.20;;;;;;5014618;28;20045;-65
2021/01/15 11:46:21;;;;;;;26.73;15.85;;;0.40;77.10;;;;;;5018851;28;20517;-66
2021/01/15 11:48:47;;;;;;;29.70;16.30;;;0.50;77.30;;;;;;5019947;28;20038;-65
2021/01/15 11:51:13;;;;;;;28.95;16.35;;;0.50;77.20;;;;;;5018938;28;20034;-66
2021/01/15 11:53:39;;;;;;;29.63;16.50;;;0.50;76.90;;;;;;5021114;28;20096;-66
2021/01/15 11:56:06;;;;;;;31.08;16.52;;;0.50;76.70;;;;;;5020190;28;20061;-66
2021/01/15 11:58:32;;;;;;;30.98;17.02;;;0.50;76.40;;;;;;5016973;28;20044;-66
2021/01/15 12:00:58;;;;;;;35.42;18.20;;;0.50;76.20;;;;;;5020268;28;20160;-65
2021/01/15 12:03:25;;;;;;;29.10;16.23;;;0.40;75.70;;;;;;5019629;28;20121;-65
2021/01/15 12:05:51;;;;;;;29.92;15.75;;;0.40;75.70;;;;;;5018812;28;20041;-66
2021/01/15 12:08:20;;;;;;;27.90;16.05;;;0.30;76.00;;;;;;5019284;28;20056;-66
2021/01/15 12:10:54;;;;;;;34.13;18.90;;;0.30;76.30;;;;;;5017301;28;20163;-66
2021/01/15 12:13:20;;;;;;;30.20;16.38;;;0.30;75.40;;;;;;5021264;28;20085;-65
2021/01/15 12:15:54;;;;;;;32.85;18.38;;;0.20;75.30;;;;;;5020573;28;20026;-66
2021/01/15 12:18:20;;;;;;;30.27;16.75;;;0.10;75.40;;;;;;5020497;28;20095;-66
2021/01/15 12:20:46;;;;;;;31.85;17.42;;;0.00;75.60;;;;;;5018700;28;20026;-65
2021/01/15 12:23:13;;;;;;;30.30;16.10;;;-0.10;76.10;;;;;;5019643;28;20048;-66
2021/01/15 12:25:39;;;;;;;32.17;17.02;;;-0.10;76.60;;;;;;5018625;28;20034;-66
2021/01/15 12:28:16;;;;;;;33.67;17.00;;;-0.20;76.90;;;;;;5020796;28;20440;-66
2021/01/15 12:30:46;;;;;;;33.10;17.48;;;-0.20;76.70;;;;;;5020459;28;20429;-66
2021/01/15 12:33:14;;;;;;;29.55;15.90;;;-0.30;76.70;;;;;;5019817;28;20112;-64
2021/01/15 12:35:41;;;;;;;29.63;16.48;;;-0.30;77.10;;;;;;5019599;28;20137;-66
2021/01/15 12:38:08;;;;;;;33.75;17.55;;;-0.30;77.30;;;;;;5017714;28;20104;-66
2021/01/15 12:40:35;;;;;;;30.83;16.38;;;-0.30;76.90;;;;;;5018573;28;20523;-66
2021/01/15 12:43:05;;;;;;;30.95;16.23;;;-0.30;76.70;;;;;;5019672;28;20064;-66
2021/01/15 12:45:35;;;;;;;30.42;15.98;;;-0.40;76.70;;;;;;5020087;28;20053;-65
2021/01/15 12:48:01;;;;;;;28.67;15.20;;;-0.40;76.90;;;;;;5018752;28;20026;-65